Time;durP1;ratioP1;P1;durP2;ratioP2;P2;SDS_P1;SDS_P2;PMS_P1;PMS_P2;Temp;Humidity;BMP_temperature;BMP_pressure;BME280_temperature;BME280_humidity;BME280_pressure;Samples;Min_cycle;Max_cycle;Signal;HPM_P1;HPM_P2
2022/04/08 00:01:22;;;;;;;14.88;6.72;;;;;;;7.02;66.58;91367.97;5035079;28;20045;-90
2022/04/08 00:08:03;;;;;;;;;;;;;;;;;;;;;
2022/04/08 00:10:44;;;;;;;15.00;6.38;;;;;;;6.72;66.63;91332.16;5033975;28;20483;-90
2022/04/08 00:14:04;;;;;;;;;;;;;;;;;;;;;
2022/04/08 00:20:39;;;;;;;15.02;6.32;;;;;;;6.97;66.75;91381.09;5006546;28;20502;-90
2022/04/08 00:23:08;;;;;;;13.82;6.28;;;;;;;6.99;66.90;91386.00;5003997;28;20076;-90
2022/04/08 00:26:25;;;;;;;13.75;6.43;;;;;;;6.77;67.12;91356.22;5004859;28;20025;-90
2022/04/08 00:32:52;;;;;;;15.40;6.25;;;;;;;6.87;68.08;91387.28;5018148;28;20124;-90
2022/04/08 00:35:18;;;;;;;15.65;6.38;;;;;;;6.78;67.41;91372.63;5016244;28;20046;-89
2022/04/08 00:37:53;;;;;;;15.15;5.13;;;;;;;6.86;68.95;91377.91;4999988;28;20044;-90
2022/04/08 00:40:19;;;;;;;10.27;5.68;;;;;;;6.74;69.01;91375.03;5000216;28;20503;-90
2022/04/08 00:43:17;;;;;;;11.32;5.38;;;;;;;6.69;69.00;91364.72;5054160;28;20492;-90
2022/04/08 00:45:43;;;;;;;14.63;6.30;;;;;;;6.63;68.76;91360.69;5039037;28;20037;-90
2022/04/08 00:48:10;;;;;;;11.40;5.30;;;;;;;6.69;68.89;91367.34;5056123;28;20109;-89
2022/04/08 00:50:41;;;;;;;14.63;6.25;;;;;;;6.81;68.88;91391.03;5022369;28;20052;-90
2022/04/08 00:56:42;;;;;;;14.10;6.38;;;;;;;6.73;68.69;91391.69;5056994;28;20063;-90
2022/04/08 00:59:12;;;;;;;13.43;6.30;;;;;;;6.59;69.10;91367.50;5031196;28;20041;-91
2022/04/08 01:05:32;;;;;;;18.30;6.85;;;;;;;6.54;69.10;91355.38;5031134;28;20079;-90
2022/04/08 01:07:58;;;;;;;15.32;6.65;;;;;;;6.67;68.90;91379.84;5036522;28;20098;-89
2022/04/08 01:10:24;;;;;;;19.27;7.30;;;;;;;6.60;68.69;91369.84;5022261;28;20045;-90
2022/04/08 01:12:53;;;;;;;25.25;7.85;;;;;;;6.67;69.23;91385.81;5038655;28;20037;-90
2022/04/08 01:19:05;;;;;;;15.02;7.60;;;;;;;6.30;68.92;91332.13;4979138;28;20077;-90
2022/04/08 01:21:57;;;;;;;18.00;6.95;;;;;;;6.67;68.75;91377.25;4995314;28;20042;-90
2022/04/08 01:29:04;;;;;;;;;;;;;;;;;;;;;
2022/04/08 01:39:29;;;;;;;12.13;5.90;;;;;;;6.62;69.05;91349.50;5016845;28;20037;-89
2022/04/08 01:41:57;;;;;;;15.85;6.00;;;;;;;6.74;68.42;91346.41;4983127;28;20068;-90
2022/04/08 01:44:30;;;;;;;16.70;6.60;;;;;;;6.74;68.39;91350.84;4969619;28;20522;-90
2022/04/08 01:47:08;;;;;;;15.90;5.70;;;;;;;6.50;68.22;91325.81;5005192;28;20045;-90
2022/04/08 01:50:18;;;;;;;13.75;5.28;;;;;;;6.55;68.75;91335.34;5023261;28;20553;-89
2022/04/08 01:53:20;;;;;;;;;;;;;;;;;;;;;
2022/04/08 02:03:19;;;;;;;;;;;;;;;;;;;;;
2022/04/08 02:09:42;;;;;;;;;;;;;;;6.58;70.10;91361.53;5036168;28;20443;-90
2022/04/08 02:12:08;;;;;;;12.98;5.65;;;;;;;6.42;69.67;91342.09;5017669;28;20015;-90
2022/04/08 02:14:41;;;;;;;11.27;5.40;;;;;;;6.47;69.59;91339.38;5036248;28;20033;-90
2022/04/08 02:17:09;;;;;;;13.18;6.20;;;;;;;6.41;69.13;91319.75;5017831;28;20045;-90
2022/04/08 02:19:35;;;;;;;15.45;6.55;;;;;;;6.51;69.77;91342.16;5001617;28;20030;-90
2022/04/08 02:22:05;;;;;;;13.55;5.88;;;;;;;6.54;69.24;91354.59;5002880;28;20048;-90
2022/04/08 02:28:34;;;;;;;13.25;5.63;;;;;;;6.45;69.65;91352.66;5035628;28;20025;-90
2022/04/08 02:35:20;;;;;;;;;;;;;;;;;;;;;
2022/04/08 02:42:31;;;;;;;;;;;;;;;6.55;68.99;91345.72;4955347;28;20073;-90
2022/04/08 02:56:28;;;;;;;21.70;6.88;;;;;;;6.59;69.02;91350.06;4897491;29;20051;-90
2022/04/08 02:58:56;;;;;;;14.93;6.07;;;;;;;6.51;68.95;91336.97;4967746;28;20053;-90
2022/04/08 03:05:06;;;;;;;17.80;6.63;;;;;;;6.59;68.55;91331.09;5034013;28;20378;-90
2022/04/08 03:07:34;;;;;;;11.30;5.30;;;;;;;6.64;68.16;91325.78;5017131;28;20491;-90
2022/04/08 03:10:00;;;;;;;14.65;6.30;;;;;;;6.70;67.83;91334.28;5033286;28;20076;-90
2022/04/08 03:12:29;;;;;;;14.38;6.30;;;;;;;6.68;67.88;91327.53;5020244;28;20041;-89
2022/04/08 03:15:18;;;;;;;14.52;6.22;;;;;;;6.74;68.07;91341.22;5036451;28;20041;-90
2022/04/08 03:21:39;;;;;;;17.60;6.25;;;;;;;6.69;68.35;91338.72;5053886;28;20270;-90
2022/04/08 03:24:05;;;;;;;19.65;6.53;;;;;;;6.73;68.46;91337.06;5019430;28;20041;-90
2022/04/08 03:30:40;;;;;;;16.77;6.60;;;;;;;6.74;68.37;91332.66;5054350;28;20063;-89
2022/04/08 03:36:45;;;;;;;19.40;7.75;;;;;;;6.71;68.86;91328.81;5054256;28;20116;-89
2022/04/08 03:39:10;;;;;;;21.02;7.20;;;;;;;6.61;68.68;91306.34;5036754;28;20083;-91
2022/04/08 03:49:31;;;;;;;;;;;;;;;;;;;;;
2022/04/08 03:59:53;;;;;;;;;;;;;;;;;;;;;
2022/04/08 04:02:54;;;;;;;;;;;;;;;;;;;;;
2022/04/08 04:05:49;;;;;;;;;;;;;;;;;;;;;
2022/04/08 04:12:42;;;;;;;;;;;;;;;7.01;67.41;91327.41;5035459;28;20036;-88
2022/04/08 04:15:09;;;;;;;10.65;4.90;;;;;;;6.86;66.79;91299.88;5027857;28;19978;-87
2022/04/08 04:17:35;;;;;;;12.07;5.65;;;;;;;6.83;67.03;91292.66;5035011;28;20033;-87
2022/04/08 04:20:02;;;;;;;7.32;3.63;;;;;;;6.88;66.70;91302.94;5034878;28;20029;-86
2022/04/08 04:22:28;;;;;;;10.40;4.10;;;;;;;6.97;66.16;91308.22;5033432;28;20063;-87
2022/04/08 04:24:53;;;;;;;7.32;2.50;;;;;;;7.23;63.94;91311.09;5021458;28;20033;-88
2022/04/08 04:27:19;;;;;;;6.75;2.60;;;;;;;7.36;63.76;91303.50;5035987;28;20090;-88
2022/04/08 04:29:45;;;;;;;5.80;2.40;;;;;;;7.46;63.21;91304.06;4981231;28;20521;-89
2022/04/08 04:32:10;;;;;;;6.70;3.10;;;;;;;7.47;63.67;91310.78;5047910;28;20366;-91
2022/04/08 04:34:38;;;;;;;9.32;2.60;;;;;;;7.51;63.08;91310.97;5030495;28;20045;-88
2022/04/08 04:37:09;;;;;;;5.65;2.40;;;;;;;7.26;63.24;91284.44;5010984;28;20086;-88
2022/04/08 04:39:52;;;;;;;27.00;12.73;;;;;;;7.12;63.02;91273.31;5019404;28;20037;-87
2022/04/08 04:43:00;;;;;;;47.67;19.35;;;;;;;7.17;63.38;91301.84;5030033;28;20445;-87
2022/04/08 04:45:47;;;;;;;9.10;3.63;;;;;;;6.82;64.29;91259.91;5023084;28;20056;-87
2022/04/08 04:48:28;;;;;;;4.53;1.88;;;;;;;6.96;64.19;91285.09;5012595;28;20034;-87
2022/04/08 04:51:04;;;;;;;3.90;2.00;;;;;;;6.61;64.15;91250.97;5033907;28;20044;-87
2022/04/08 04:53:37;;;;;;;8.43;2.30;;;;;;;6.79;65.09;91298.72;5030994;28;20037;-88
2022/04/08 04:56:33;;;;;;;;;;;;;;;;;;;;;
2022/04/08 04:59:11;;;;;;;6.20;2.35;;;;;;;6.37;65.73;91275.38;5041870;28;20044;-87
2022/04/08 05:01:54;;;;;;;;;;;;;;;;;;;;;
2022/04/08 05:04:26;;;;;;;7.22;3.55;;;;;;;6.21;67.78;91269.69;5039709;28;20486;-88
2022/04/08 05:07:06;;;;;;;6.30;3.63;;;;;;;6.66;68.53;91349.69;5017570;28;20037;-88
2022/04/08 05:09:51;;;;;;;;;;;;;;;;;;;;;
2022/04/08 05:13:12;;;;;;;7.13;3.28;;;;;;;6.42;68.97;91316.84;5033285;28;20059;-89
2022/04/08 05:15:42;;;;;;;8.75;4.32;;;;;;;6.13;69.45;91270.34;5039065;28;20091;-86
2022/04/08 05:18:23;;;;;;;11.95;4.10;;;;;;;6.40;69.60;91318.97;5025378;28;20087;-86
2022/04/08 05:21:09;;;;;;;11.40;4.28;;;;;;;6.11;69.47;91279.50;5039266;28;20045;-87
2022/04/08 05:23:40;;;;;;;12.73;5.43;;;;;;;6.27;69.87;91291.16;5032523;28;20163;-86
2022/04/08 05:26:06;;;;;;;12.40;4.97;;;;;;;6.63;70.90;91338.03;5034849;28;20065;-87
2022/04/08 05:28:36;;;;;;;8.65;4.72;;;;;;;6.54;70.74;91311.16;5014971;28;20035;-86
2022/04/08 05:31:02;;;;;;;9.93;5.25;;;;;;;6.65;71.12;91322.16;5000319;28;20116;-86
2022/04/08 05:33:30;;;;;;;10.05;5.20;;;;;;;6.42;71.19;91283.06;5034343;28;20528;-86
2022/04/08 05:35:56;;;;;;;14.20;5.50;;;;;;;6.63;71.43;91308.66;5033325;28;20068;-86
2022/04/08 05:38:24;;;;;;;10.95;5.15;;;;;;;6.71;71.11;91315.00;5032492;28;20047;-85
2022/04/08 05:40:53;;;;;;;13.30;5.78;;;;;;;6.84;70.94;91311.63;5032671;28;20055;-85
2022/04/08 05:43:19;;;;;;;17.15;5.97;;;;;;;7.22;70.50;91340.00;5065573;28;20462;-86
2022/04/08 05:45:44;;;;;;;10.43;5.68;;;;;;;7.36;70.26;91339.97;5054716;28;20044;-86
2022/04/08 05:48:10;;;;;;;12.43;5.95;;;;;;;7.33;69.29;91311.91;5041075;28;20036;-89
2022/04/08 05:50:38;;;;;;;10.23;5.93;;;;;;;7.63;68.82;91329.47;5060476;28;20041;-86
2022/04/08 05:53:04;;;;;;;14.60;5.57;;;;;;;7.69;68.55;91309.28;5000135;28;20721;-86
2022/04/08 05:55:29;;;;;;;10.07;5.10;;;;;;;7.80;67.64;91304.59;5021109;28;20051;-86
2022/04/08 05:57:56;;;;;;;11.27;5.22;;;;;;;8.03;66.96;91308.69;5054612;28;20112;-86
2022/04/08 06:00:25;;;;;;;14.30;4.88;;;;;;;8.32;66.32;91323.13;5034528;28;20049;-89
2022/04/08 06:02:53;;;;;;;8.60;4.13;;;;;;;8.31;65.56;91275.41;5036406;28;20033;-87
2022/04/08 06:05:19;;;;;;;8.65;3.83;;;;;;;8.98;64.55;91343.31;5049512;28;20044;-87
2022/04/08 06:07:54;;;;;;;6.80;3.63;;;;;;;8.95;63.21;91303.72;5044796;28;20109;-88
2022/04/08 06:10:26;;;;;;;8.15;3.55;;;;;;;9.52;62.40;91338.63;5034221;28;20053;-87
2022/04/08 06:12:52;;;;;;;11.05;3.92;;;;;;;11.21;58.63;91338.38;5035146;28;20029;-88
2022/04/08 06:15:21;;;;;;;6.13;3.05;;;;;;;15.02;47.25;91292.81;5034456;28;20039;-88
2022/04/08 06:17:51;;;;;;;6.45;2.97;;;;;;;18.47;38.29;91319.41;5038846;28;20094;-88
2022/04/08 06:20:20;;;;;;;;;;;;;;;20.72;33.30;91335.31;5035964;28;20029;-87
2022/04/08 06:22:49;;;;;;;6.45;2.92;;;;;;;21.87;31.09;91302.66;5015435;28;19959;-88
2022/04/08 06:25:26;;;;;;;9.00;2.85;;;;;;;23.68;29.77;91291.31;5020241;28;20040;-88
2022/04/08 06:28:04;;;;;;;16.77;5.78;;;;;;;24.97;27.38;91289.84;5019233;28;20044;-88
2022/04/08 06:30:41;;;;;;;11.60;5.88;;;;;;;26.14;25.95;91323.19;5034985;28;20528;-88
2022/04/08 06:33:15;;;;;;;12.20;4.63;;;;;;;26.52;24.61;91310.19;5030618;28;20037;-88
2022/04/08 06:35:43;;;;;;;12.70;5.20;;;;;;;27.62;23.74;91333.16;5035415;28;20127;-88
2022/04/08 06:38:11;;;;;;;10.77;4.78;;;;;;;27.77;22.76;91305.97;5035446;28;20120;-88
2022/04/08 06:40:39;;;;;;;17.77;5.07;;;;;;;26.73;23.06;91298.31;5016737;28;20482;-88
2022/04/08 06:43:09;;;;;;;12.00;5.13;;;;;;;26.72;23.19;91318.25;5048763;28;20031;-87
2022/04/08 06:45:40;;;;;;;10.70;4.30;;;;;;;26.60;23.27;91297.44;5035066;28;20401;-90
2022/04/08 06:48:18;;;;;;;8.93;4.17;;;;;;;27.62;22.80;91314.34;5050415;28;20505;-88
2022/04/08 06:50:44;;;;;;;7.65;3.83;;;;;;;28.27;21.27;91299.31;5052148;28;20036;-89
2022/04/08 06:53:13;;;;;;;7.45;4.03;;;;;;;30.09;20.16;91333.59;5032539;28;20033;-88
2022/04/08 06:55:38;;;;;;;13.18;4.50;;;;;;;31.11;19.28;91339.72;5045490;28;20033;-88
2022/04/08 06:58:05;;;;;;;10.70;4.03;;;;;;;31.14;19.70;91319.91;5015456;28;20049;-88
2022/04/08 07:00:32;;;;;;;9.07;3.80;;;;;;;30.79;19.20;91338.94;5019874;28;20040;-88
2022/04/08 07:02:57;;;;;;;7.78;3.35;;;;;;;28.60;21.26;91328.84;5050617;28;20043;-89
2022/04/08 07:05:25;;;;;;;7.35;3.60;;;;;;;27.15;21.99;91348.81;5052744;28;20467;-87
2022/04/08 07:07:51;;;;;;;7.10;3.40;;;;;;;25.49;24.23;91313.56;5034650;28;20556;-87
2022/04/08 07:10:16;;;;;;;15.52;3.22;;;;;;;25.09;25.32;91300.00;5035094;28;20041;-87
2022/04/08 07:12:42;;;;;;;5.35;3.00;;;;;;;24.20;26.44;91315.22;5030572;28;20059;-86
2022/04/08 07:15:08;;;;;;;5.60;3.30;;;;;;;23.33;27.43;91309.19;5022737;28;20033;-87
2022/04/08 07:17:36;;;;;;;6.25;3.20;;;;;;;22.47;29.15;91336.31;5035134;28;20041;-89
2022/04/08 07:20:04;;;;;;;5.20;2.92;;;;;;;21.92;30.35;91318.22;5035200;28;20029;-87
2022/04/08 07:22:30;;;;;;;7.25;3.50;;;;;;;19.93;33.62;91350.19;5052753;28;20107;-89
2022/04/08 07:24:56;;;;;;;8.40;3.42;;;;;;;17.66;36.73;91328.63;5014823;28;20044;-88
2022/04/08 07:27:21;;;;;;;9.20;3.75;;;;;;;17.02;39.99;91348.81;5032784;28;20120;-89
2022/04/08 07:29:49;;;;;;;8.30;4.25;;;;;;;17.18;39.62;91352.09;5001974;28;20036;-87
2022/04/08 07:32:24;;;;;;;14.52;4.10;;;;;;;17.35;39.07;91358.00;5034509;28;20127;-88
2022/04/08 07:34:51;;;;;;;6.63;3.22;;;;;;;17.09;38.42;91354.22;5034544;28;20113;-87
2022/04/08 07:37:31;;;;;;;5.93;3.15;;;;;;;15.97;41.30;91330.31;5034960;28;20041;-86
2022/04/08 07:39:57;;;;;;;8.18;3.33;;;;;;;16.39;41.25;91345.44;5034670;28;20080;-87
2022/04/08 07:42:23;;;;;;;11.25;3.05;;;;;;;17.08;38.63;91336.81;5036654;28;20033;-87
2022/04/08 07:44:49;;;;;;;10.70;3.33;;;;;;;17.26;38.35;91345.78;5052156;28;20040;-87
2022/04/08 07:47:15;;;;;;;9.75;3.90;;;;;;;17.19;39.72;91350.97;5012814;28;20040;-87
2022/04/08 07:49:42;;;;;;;7.03;3.53;;;;;;;16.94;40.19;91352.47;5034091;28;20070;-87
2022/04/08 07:52:07;;;;;;;18.05;4.78;;;;;;;17.06;40.25;91354.91;5034152;28;20119;-88
2022/04/08 07:54:33;;;;;;;6.13;3.53;;;;;;;17.31;41.54;91343.97;5052722;28;20585;-87
2022/04/08 07:56:59;;;;;;;7.18;3.42;;;;;;;17.12;41.41;91328.97;5035506;28;20041;-87
2022/04/08 07:59:25;;;;;;;10.38;3.67;;;;;;;16.98;38.50;91324.97;5019008;28;20060;-86
2022/04/08 08:01:51;;;;;;;8.88;3.60;;;;;;;16.95;39.99;91332.84;5043475;28;20042;-86
2022/04/08 08:04:16;;;;;;;12.52;4.30;;;;;;;16.15;38.02;91340.44;5032435;28;20120;-85
2022/04/08 08:06:42;;;;;;;6.45;3.30;;;;;;;15.86;43.13;91349.69;5021523;28;20037;-86
2022/04/08 08:09:08;;;;;;;7.38;3.10;;;;;;;14.54;44.99;91337.56;5014164;28;20049;-85
2022/04/08 08:11:34;;;;;;;6.20;3.72;;;;;;;14.47;45.40;91350.56;4998797;28;20115;-87
2022/04/08 08:13:59;;;;;;;8.65;3.72;;;;;;;14.41;46.08;91346.63;5031217;28;20127;-86
2022/04/08 08:16:25;;;;;;;9.85;3.80;;;;;;;14.60;45.43;91332.84;5052697;28;20041;-86
2022/04/08 08:18:56;;;;;;;9.02;3.88;;;;;;;14.57;45.03;91342.19;5034883;28;20095;-86
2022/04/08 08:21:22;;;;;;;20.60;4.90;;;;;;;14.38;46.86;91340.94;5034708;28;20068;-86
2022/04/08 08:23:47;;;;;;;9.65;3.63;;;;;;;14.41;46.61;91352.69;5034622;28;20033;-86
2022/04/08 08:26:13;;;;;;;6.53;3.80;;;;;;;14.84;45.57;91337.19;5034975;28;20090;-86
2022/04/08 08:28:39;;;;;;;9.48;4.20;;;;;;;15.15;42.52;91350.38;5051860;28;20041;-86
2022/04/08 08:31:04;;;;;;;13.20;4.45;;;;;;;14.96;43.48;91340.50;5034138;28;22196;-86
2022/04/08 08:33:30;;;;;;;13.80;5.85;;;;;;;14.89;42.47;91348.25;5034841;28;20033;-86
2022/04/08 08:35:56;;;;;;;18.33;6.57;;;;;;;14.96;42.95;91361.59;5052430;28;20790;-86
2022/04/08 08:38:22;;;;;;;13.63;6.18;;;;;;;14.50;43.07;91366.47;5018226;28;20487;-86
2022/04/08 08:40:49;;;;;;;17.42;7.30;;;;;;;14.60;45.43;91369.72;5052648;28;20045;-86
2022/04/08 08:43:18;;;;;;;16.85;7.10;;;;;;;14.95;43.84;91385.63;5038472;28;20068;-86
2022/04/08 08:45:48;;;;;;;17.67;7.88;;;;;;;14.87;41.79;91391.84;5054975;28;20091;-86
2022/04/08 08:48:15;;;;;;;16.00;7.55;;;;;;;14.54;44.25;91396.28;5038239;28;20037;-86
2022/04/08 08:50:48;;;;;;;17.33;7.88;;;;;;;14.14;45.45;91393.69;5036474;28;20037;-87
2022/04/08 08:53:18;;;;;;;14.43;7.20;;;;;;;14.29;45.95;91403.50;5035301;28;20053;-89
2022/04/08 08:55:45;;;;;;;19.85;8.23;;;;;;;14.58;44.68;91397.16;5053734;28;20029;-86
2022/04/08 08:58:12;;;;;;;20.33;7.65;;;;;;;15.10;45.08;91395.44;5020415;28;20608;-87
2022/04/08 09:00:37;;;;;;;17.38;7.55;;;;;;;15.11;44.22;91391.69;5018855;28;20048;-86
2022/04/08 09:03:03;;;;;;;16.35;8.25;;;;;;;14.57;46.94;91392.25;5035851;28;20068;-87
2022/04/08 09:05:29;;;;;;;19.27;8.32;;;;;;;14.35;46.91;91390.88;5020323;28;20079;-86
2022/04/08 09:07:56;;;;;;;20.90;8.60;;;;;;;14.59;45.15;91400.56;5037139;28;20065;-86
2022/04/08 09:10:26;;;;;;;22.70;8.80;;;;;;;13.91;46.77;91404.69;5016777;28;20487;-87
2022/04/08 09:12:54;;;;;;;21.80;9.35;;;;;;;14.21;45.86;91401.78;5017808;28;20034;-86
2022/04/08 09:15:20;;;;;;;21.58;8.90;;;;;;;14.41;47.29;91391.38;5031745;28;20378;-85
2022/04/08 09:17:45;;;;;;;20.40;8.77;;;;;;;14.71;46.97;91384.69;5034009;28;20112;-86
2022/04/08 09:20:12;;;;;;;20.75;8.63;;;;;;;14.63;46.32;91398.78;5034980;28;20140;-85
2022/04/08 09:22:37;;;;;;;20.40;8.23;;;;;;;14.91;46.70;91393.47;5017554;28;20352;-88
2022/04/08 09:25:10;;;;;;;25.73;9.68;;;;;;;14.70;45.25;91375.28;5033831;28;20148;-86
2022/04/08 09:27:38;;;;;;;23.13;9.13;;;;;;;14.95;44.18;91385.63;5031740;28;20088;-89
2022/04/08 09:30:04;;;;;;;20.60;9.20;;;;;;;15.19;45.83;91390.75;5027339;28;20065;-86
2022/04/08 09:32:30;;;;;;;24.00;9.35;;;;;;;14.96;46.01;91395.09;5033114;28;20052;-86
2022/04/08 09:34:55;;;;;;;26.70;9.68;;;;;;;14.75;46.17;91388.19;5035057;28;20475;-86
2022/04/08 09:37:21;;;;;;;21.63;8.73;;;;;;;15.08;44.72;91404.78;5017258;28;20045;-87
2022/04/08 09:39:57;;;;;;;23.40;9.13;;;;;;;15.28;45.33;91400.38;5012885;28;20480;-86
2022/04/08 09:42:30;;;;;;;20.58;9.93;;;;;;;15.02;45.59;91399.00;4980985;28;20145;-86
2022/04/08 09:44:58;;;;;;;27.38;10.50;;;;;;;14.78;45.59;91407.81;5003097;28;20034;-88
2022/04/08 09:47:23;;;;;;;37.47;11.75;;;;;;;14.95;45.60;91406.72;5052877;28;20025;-86
2022/04/08 09:49:52;;;;;;;23.90;10.05;;;;;;;15.27;45.01;91398.84;5013612;28;20042;-88
2022/04/08 09:52:20;;;;;;;28.23;10.10;;;;;;;15.58;44.99;91414.66;5015459;28;20044;-88
2022/04/08 09:54:46;;;;;;;23.45;10.60;;;;;;;15.82;43.32;91412.91;5011900;28;20041;-86
2022/04/08 09:57:18;;;;;;;23.65;10.73;;;;;;;15.93;43.28;91423.72;5033855;28;20041;-86
2022/04/08 09:59:49;;;;;;;23.57;10.07;;;;;;;15.85;45.04;91422.00;5038812;28;20033;-86
2022/04/08 10:02:16;;;;;;;29.98;11.15;;;;;;;15.72;43.40;91368.63;5040678;28;20042;-86
2022/04/08 10:04:43;;;;;;;31.65;11.32;;;;;;;15.64;43.66;91406.47;5033926;28;20426;-86
2022/04/08 10:07:10;;;;;;;27.67;10.65;;;;;;;16.00;43.91;91402.75;5016757;28;20114;-87
2022/04/08 10:09:46;;;;;;;23.25;10.38;;;;;;;15.51;43.56;91403.16;5034857;28;20041;-87
2022/04/08 10:12:45;;;;;;;26.48;10.82;;;;;;;15.01;44.27;91347.41;5044962;28;20037;-86
2022/04/08 10:15:26;;;;;;;23.58;9.73;;;;;;;15.79;44.10;91398.53;5034621;28;20053;-86
2022/04/08 10:18:00;;;;;;;29.47;10.97;;;;;;;15.60;43.80;91375.50;5054289;28;20482;-86
2022/04/08 10:20:28;;;;;;;23.15;9.95;;;;;;;16.15;43.51;91409.09;5031345;28;20160;-88
2022/04/08 10:23:10;;;;;;;22.50;9.90;;;;;;;16.26;42.87;91396.09;5032801;28;20037;-86
2022/04/08 10:25:37;;;;;;;18.45;8.50;;;;;;;16.30;42.98;91403.00;5019623;28;20151;-87
2022/04/08 10:28:03;;;;;;;18.77;8.30;;;;;;;16.07;43.56;91399.50;5054617;28;20025;-86
2022/04/08 10:30:33;;;;;;;24.50;8.95;;;;;;;15.80;44.52;91399.31;5019815;28;20064;-86
2022/04/08 10:33:00;;;;;;;21.20;9.80;;;;;;;15.81;44.68;91387.66;5052073;28;20060;-86
2022/04/08 10:35:27;;;;;;;19.48;8.18;;;;;;;15.96;44.85;91386.06;5036158;28;20056;-87
2022/04/08 10:37:58;;;;;;;19.38;9.43;;;;;;;15.95;44.34;91387.19;5020048;28;20041;-87
2022/04/08 10:40:37;;;;;;;19.58;8.65;;;;;;;16.46;43.69;91392.34;5003664;28;20064;-86
2022/04/08 10:43:08;;;;;;;19.90;8.43;;;;;;;16.23;44.45;91400.97;5035913;28;20565;-86
2022/04/08 10:45:36;;;;;;;20.63;9.10;;;;;;;15.99;43.77;91390.66;5053770;28;20083;-86
2022/04/08 10:48:22;;;;;;;15.18;8.57;;;;;;;15.92;43.62;91396.56;5034708;28;20090;-87
2022/04/08 10:50:47;;;;;;;14.15;6.80;;;;;;;15.78;44.21;91396.25;5052457;28;20049;-86
2022/04/08 10:53:18;;;;;;;16.20;6.57;;;;;;;16.40;43.68;91399.78;5051887;28;20515;-87
2022/04/08 10:55:50;;;;;;;13.88;7.30;;;;;;;16.41;41.68;91392.63;5034340;28;20037;-89
2022/04/08 10:58:33;;;;;;;13.93;5.65;;;;;;;15.96;42.81;91386.06;5034808;28;20045;-87
2022/04/08 11:00:59;;;;;;;12.07;5.97;;;;;;;16.52;42.64;91376.97;5035417;28;20127;-87
2022/04/08 11:03:29;;;;;;;13.45;5.78;;;;;;;16.55;41.54;91378.91;5052774;28;20064;-87
2022/04/08 11:05:55;;;;;;;10.43;5.05;;;;;;;16.39;41.21;91371.84;5032636;28;20053;-86
2022/04/08 11:08:25;;;;;;;16.17;5.82;;;;;;;16.48;42.11;91349.72;5053483;28;20040;-86
2022/04/08 11:10:57;;;;;;;16.80;6.25;;;;;;;16.50;44.00;91371.28;5054950;28;20037;-86
2022/04/08 11:13:26;;;;;;;24.25;7.80;;;;;;;15.83;47.11;91366.97;5052762;28;20120;-86
2022/04/08 11:15:52;;;;;;;15.77;6.75;;;;;;;15.32;47.10;91370.34;5035899;28;20127;-86
2022/04/08 11:18:18;;;;;;;18.30;6.30;;;;;;;15.24;47.83;91373.16;5052429;28;20044;-86
2022/04/08 11:20:50;;;;;;;28.38;8.13;;;;;;;15.05;48.30;91342.22;5018325;28;20068;-88
2022/04/08 11:23:27;;;;;;;19.80;8.95;;;;;;;15.07;48.35;91342.66;5022609;28;20041;-86
2022/04/08 11:25:53;;;;;;;19.50;8.00;;;;;;;14.56;51.11;91330.13;5049382;28;20483;-86
2022/04/08 11:28:22;;;;;;;27.70;9.80;;;;;;;14.69;50.95;91334.22;5052787;28;20037;-86
2022/04/08 11:30:54;;;;;;;22.83;8.90;;;;;;;15.26;49.35;91329.53;5052407;28;20490;-87
2022/04/08 11:33:20;;;;;;;16.63;7.13;;;;;;;15.43;49.74;91344.22;5053267;28;20127;-86
2022/04/08 11:35:47;;;;;;;23.10;7.50;;;;;;;15.39;48.52;91340.72;5052478;28;20196;-88
2022/04/08 11:38:18;;;;;;;23.58;8.63;;;;;;;15.05;49.44;91324.53;5035179;28;20064;-88
2022/04/08 11:40:44;;;;;;;17.27;7.40;;;;;;;15.32;49.95;91324.75;5015336;28;20068;-88
2022/04/08 11:43:15;;;;;;;17.85;7.75;;;;;;;15.55;48.98;91303.78;5034451;28;20449;-88
2022/04/08 11:45:44;;;;;;;14.80;6.20;;;;;;;15.34;49.54;91309.38;5023983;28;20079;-88
2022/04/08 11:48:15;;;;;;;16.25;6.22;;;;;;;15.34;48.46;91304.09;5050910;28;20041;-87
2022/04/08 11:50:43;;;;;;;22.97;6.10;;;;;;;15.30;48.76;91305.88;5051960;28;20120;-88
2022/04/08 11:53:23;;;;;;;21.23;5.80;;;;;;;15.09;49.94;91298.28;5033842;28;20477;-87
2022/04/08 11:56:01;;;;;;;15.43;4.72;;;;;;;14.83;49.44;91296.16;5027028;28;20367;-87
2022/04/08 11:58:28;;;;;;;16.08;3.58;;;;;;;14.77;49.10;91301.69;5038643;28;20037;-87
2022/04/08 12:00:58;;;;;;;15.30;4.82;;;;;;;14.58;51.01;91299.72;5017900;28;20060;-87
2022/04/08 12:03:28;;;;;;;14.80;5.15;;;;;;;14.87;50.17;91307.53;5048352;28;20052;-87
2022/04/08 12:05:55;;;;;;;21.27;4.45;;;;;;;15.19;49.04;91293.22;5021614;28;20033;-87
2022/04/08 12:08:21;;;;;;;12.27;3.70;;;;;;;14.90;49.10;91294.44;5027980;28;20068;-87
2022/04/08 12:10:52;;;;;;;19.50;5.68;;;;;;;15.14;49.03;91274.28;5034387;28;20056;-87
2022/04/08 12:13:29;;;;;;;13.52;4.50;;;;;;;15.22;49.10;91298.91;5018151;28;20037;-88
2022/04/08 12:15:58;;;;;;;20.67;4.50;;;;;;;15.08;49.13;91281.69;5051685;28;20049;-87
2022/04/08 12:18:28;;;;;;;13.95;4.15;;;;;;;15.14;49.47;91275.03;5056405;28;20029;-87
2022/04/08 12:21:00;;;;;;;19.00;4.35;;;;;;;15.15;49.35;91279.22;5021809;28;20188;-87
2022/04/08 12:23:27;;;;;;;17.90;4.93;;;;;;;15.30;49.83;91292.69;5038340;28;20052;-87
2022/04/08 12:25:58;;;;;;;21.92;4.25;;;;;;;15.08;49.99;91283.56;5021739;28;20127;-87
2022/04/08 12:28:28;;;;;;;14.82;4.50;;;;;;;14.97;50.32;91262.22;5038161;28;20045;-87
2022/04/08 12:30:54;;;;;;;23.05;4.90;;;;;;;14.88;50.23;91272.19;5044182;28;20061;-87
2022/04/08 12:33:42;;;;;;;10.80;3.90;;;;;;;15.66;49.28;91267.06;5021592;28;20118;-87
2022/04/08 12:36:17;;;;;;;15.07;3.83;;;;;;;15.20;49.40;91214.94;5021806;28;20107;-87
2022/04/08 12:38:50;;;;;;;16.92;3.90;;;;;;;15.11;49.46;91194.03;5038466;28;20037;-87
2022/04/08 12:41:21;;;;;;;12.38;3.88;;;;;;;15.46;49.45;91222.22;5051463;28;20056;-87
2022/04/08 12:43:54;;;;;;;11.50;3.88;;;;;;;15.10;48.99;91216.22;5037014;28;20041;-87
2022/04/08 12:46:27;;;;;;;27.38;5.75;;;;;;;14.80;50.22;91194.09;5054591;28;20032;-88
2022/04/08 12:49:12;;;;;;;19.48;4.82;;;;;;;15.27;49.96;91185.31;5049664;28;20110;-88
2022/04/08 12:52:08;;;;;;;;;;;;;;;;;;;;;
2022/04/08 12:54:54;;;;;;;21.05;4.97;;;;;;;15.63;49.01;91234.25;5033869;28;20047;-87
2022/04/08 12:57:32;;;;;;;;;;;;;;;;;;;;;
2022/04/08 13:00:03;;;;;;;11.82;4.00;;;;;;;15.98;47.90;91185.91;5034215;28;20048;-87
2022/04/08 13:02:38;;;;;;;10.27;3.83;;;;;;;15.40;48.83;91219.09;5047615;28;20033;-91
2022/04/08 13:05:48;;;;;;;17.02;5.68;;;;;;;15.45;49.11;91215.44;5054948;28;20445;-89
2022/04/08 13:08:16;;;;;;;14.48;4.50;;;;;;;15.57;49.27;91214.53;5016033;28;20048;-90
2022/04/08 13:10:58;;;;;;;;;;;;;;;;;;;;;
2022/04/08 13:13:41;;;;;;;15.50;5.32;;;;;;;15.48;49.74;91198.91;5012805;28;20048;-89
2022/04/08 13:16:21;;;;;;;18.90;6.07;;;;;;;15.14;50.50;91180.16;5015479;28;20137;-88
2022/04/08 13:19:01;;;;;;;18.92;5.43;;;;;;;14.87;50.99;91181.09;5017391;28;20040;-88
2022/04/08 13:21:39;;;;;;;19.88;5.50;;;;;;;14.44;53.08;91201.94;5016872;28;20038;-90
2022/04/08 13:24:19;;;;;;;;;;;;;;;;;;;;;
2022/04/08 13:26:58;;;;;;;;;;;;;;;;;;;;;
2022/04/08 13:29:49;;;;;;;;;;;;;;;;;;;;;
2022/04/08 13:32:32;;;;;;;18.48;5.80;;;;;;;14.62;51.67;91168.13;5035539;28;20038;-89
2022/04/08 13:35:08;;;;;;;18.75;5.28;;;;;;;14.21;52.19;91167.56;5007428;28;20065;-89
2022/04/08 13:37:56;;;;;;;24.13;6.25;;;;;;;14.33;51.76;91162.19;5015062;28;20087;-89
2022/04/08 13:40:28;;;;;;;21.65;6.13;;;;;;;14.67;51.44;91198.72;4997060;28;20164;-91
2022/04/08 13:43:16;;;;;;;14.77;5.20;;;;;;;14.30;52.21;91162.13;4982580;28;20037;-91
2022/04/08 13:46:22;;;;;;;18.48;5.88;;;;;;;14.66;51.64;91176.09;5015129;28;20033;-89
2022/04/08 13:48:57;;;;;;;19.23;5.80;;;;;;;14.76;51.76;91223.75;5016649;28;20025;-89
2022/04/08 13:51:29;;;;;;;19.65;5.43;;;;;;;14.51;51.40;91161.84;5033988;28;20029;-88
2022/04/08 13:53:57;;;;;;;17.75;4.45;;;;;;;14.32;51.48;91162.50;5012490;28;20083;-89
2022/04/08 13:56:26;;;;;;;15.95;4.95;;;;;;;14.54;51.89;91161.94;5007166;28;20056;-89
2022/04/08 13:58:59;;;;;;;16.42;5.53;;;;;;;14.97;52.21;91164.72;5036981;28;20055;-90
2022/04/08 14:01:35;;;;;;;16.05;5.90;;;;;;;14.82;52.84;91173.47;5019133;28;20038;-89
2022/04/08 14:04:06;;;;;;;17.75;5.50;;;;;;;14.57;53.78;91186.84;5016235;28;20033;-88